createdAt,value
2023-06-30T00:03:03.054Z,15.44
2023-06-30T00:08:10.540Z,15.37
2023-06-30T00:13:18.317Z,15.30
2023-06-30T00:18:26.108Z,15.23
2023-06-30T00:23:33.905Z,15.17
2023-06-30T00:28:41.497Z,15.13
2023-06-30T00:33:48.902Z,15.09
2023-06-30T00:38:57.470Z,15.04
2023-06-30T00:44:05.115Z,14.98
2023-06-30T00:49:12.548Z,14.91
2023-06-30T00:54:20.712Z,14.85
2023-06-30T00:59:29.931Z,14.81
2023-06-30T01:04:46.044Z,14.76
2023-06-30T01:09:57.546Z,14.68
2023-06-30T01:15:07.462Z,14.64
2023-06-30T01:20:17.646Z,14.57
2023-06-30T01:25:27.988Z,14.53
2023-06-30T01:30:36.257Z,14.47
2023-06-30T01:35:44.182Z,14.43
2023-06-30T01:40:51.865Z,14.39
2023-06-30T01:46:00.208Z,14.34
2023-06-30T01:51:08.506Z,14.29
2023-06-30T01:56:16.099Z,14.24
2023-06-30T02:01:23.606Z,14.20
2023-06-30T02:06:31.193Z,14.13
2023-06-30T02:11:38.737Z,14.01
2023-06-30T02:16:46.422Z,13.88
2023-06-30T02:21:54.136Z,13.77
2023-06-30T02:27:01.635Z,13.69
2023-06-30T02:32:13.384Z,13.63
2023-06-30T02:37:21.055Z,13.58
2023-06-30T02:42:28.480Z,13.55
2023-06-30T02:47:35.910Z,13.54
2023-06-30T02:52:43.341Z,13.54
2023-06-30T02:57:51.029Z,13.56
2023-06-30T03:02:59.868Z,13.60
2023-06-30T03:08:08.267Z,13.65
2023-06-30T03:13:17.074Z,13.69
2023-06-30T03:18:24.762Z,13.75
2023-06-30T03:23:32.675Z,13.82
2023-06-30T03:28:40.293Z,13.88
2023-06-30T03:33:48.529Z,13.96
2023-06-30T03:38:56.796Z,14.06
2023-06-30T03:44:04.194Z,14.17
2023-06-30T03:49:11.554Z,14.28
2023-06-30T03:54:19.794Z,14.43
2023-06-30T03:59:27.310Z,14.62
2023-06-30T04:04:35.288Z,14.84
2023-06-30T04:09:43.143Z,15.06
2023-06-30T04:14:51.270Z,15.30
2023-06-30T04:19:59.807Z,15.53
2023-06-30T04:25:09.150Z,15.77
2023-06-30T04:30:18.153Z,16.01
2023-06-30T04:35:26.949Z,16.24
2023-06-30T04:40:34.431Z,16.49
2023-06-30T04:45:42.242Z,16.74
2023-06-30T04:50:49.950Z,16.98
2023-06-30T04:55:57.470Z,17.23
2023-06-30T05:01:06.261Z,17.46
2023-06-30T05:06:13.663Z,17.71
2023-06-30T05:11:21.077Z,17.97
2023-06-30T05:16:29.036Z,18.21
2023-06-30T05:21:36.702Z,18.41
2023-06-30T05:26:44.634Z,18.60
2023-06-30T05:31:52.048Z,18.78
2023-06-30T05:36:59.978Z,18.99
2023-06-30T05:42:08.614Z,19.24
2023-06-30T05:47:16.539Z,19.55
2023-06-30T05:52:26.659Z,19.87
2023-06-30T05:57:35.095Z,20.20
2023-06-30T06:02:42.574Z,20.49
2023-06-30T06:07:50.692Z,20.77
2023-06-30T06:12:58.127Z,20.98
2023-06-30T06:18:05.425Z,21.09
2023-06-30T06:23:13.402Z,21.17
2023-06-30T06:28:21.418Z,21.24
2023-06-30T06:33:28.928Z,21.29
2023-06-30T06:38:36.468Z,21.33
2023-06-30T06:43:44.042Z,21.37
2023-06-30T06:48:51.605Z,21.41
2023-06-30T06:53:59.344Z,21.44
2023-06-30T06:59:06.851Z,21.47
2023-06-30T07:04:14.476Z,21.49
2023-06-30T07:09:21.985Z,21.53
2023-06-30T07:14:29.544Z,21.56
2023-06-30T07:19:36.958Z,21.61
2023-06-30T07:24:44.442Z,21.66
2023-06-30T07:29:52.375Z,21.73
2023-06-30T07:34:59.859Z,21.83
2023-06-30T07:40:16.557Z,21.95
2023-06-30T07:45:24.989Z,22.12
2023-06-30T07:50:33.331Z,22.22
2023-06-30T07:55:41.165Z,22.45
2023-06-30T08:00:48.719Z,22.56
2023-06-30T08:05:57.008Z,22.68
2023-06-30T08:11:05.011Z,22.79
2023-06-30T08:16:12.897Z,22.90
2023-06-30T08:21:20.509Z,23.04
2023-06-30T08:26:28.231Z,23.22
2023-06-30T08:31:36.193Z,23.47
2023-06-30T08:36:43.820Z,23.68
2023-06-30T08:41:55.919Z,23.81
2023-06-30T08:47:05.558Z,23.92
2023-06-30T08:52:16.283Z,23.95
2023-06-30T08:57:26.772Z,23.97
2023-06-30T09:02:35.151Z,23.96
2023-06-30T09:07:48.105Z,23.95
2023-06-30T09:12:58.924Z,23.94
2023-06-30T09:18:06.689Z,23.98
2023-06-30T09:23:15.145Z,24.07
2023-06-30T09:28:22.586Z,24.15
2023-06-30T09:33:32.022Z,24.19
2023-06-30T09:38:41.278Z,24.21
2023-06-30T09:43:49.961Z,24.21
2023-06-30T09:49:03.870Z,24.22
2023-06-30T09:54:13.627Z,24.22
2023-06-30T09:59:25.542Z,24.24
2023-06-30T10:04:34.740Z,24.29
2023-06-30T10:09:47.538Z,24.35
2023-06-30T10:14:56.202Z,24.31
2023-06-30T10:20:05.162Z,24.43
2023-06-30T10:25:16.477Z,24.52
2023-06-30T10:30:25.126Z,24.61
2023-06-30T10:35:34.391Z,24.69
2023-06-30T10:40:42.031Z,24.77
2023-06-30T10:46:12.585Z,24.86
2023-06-30T10:51:19.252Z,24.93
2023-06-30T10:56:30.637Z,24.99
2023-06-30T11:01:42.324Z,25.07
2023-06-30T11:07:08.425Z,25.19
2023-06-30T11:12:19.985Z,25.30
2023-06-30T11:17:28.607Z,25.42
2023-06-30T11:22:36.704Z,25.50
2023-06-30T11:27:44.632Z,25.59
2023-06-30T11:32:59.152Z,25.66
2023-06-30T11:38:09.570Z,25.68
2023-06-30T11:43:18.042Z,25.70
2023-06-30T11:48:25.527Z,25.73
2023-06-30T11:53:34.034Z,25.74
2023-06-30T11:58:45.458Z,25.72
2023-06-30T12:04:01.205Z,25.68
2023-06-30T12:09:09.552Z,25.66
2023-06-30T12:14:18.364Z,25.64
2023-06-30T12:19:31.930Z,25.66
2023-06-30T12:24:40.256Z,25.68
2023-06-30T12:29:53.045Z,25.64
2023-06-30T12:35:07.213Z,25.58
2023-06-30T12:40:16.419Z,25.50
2023-06-30T12:45:23.774Z,25.41
2023-06-30T12:50:31.420Z,25.32
2023-06-30T12:55:39.038Z,25.25
2023-06-30T13:00:46.652Z,25.20
2023-06-30T13:05:54.297Z,25.16
2023-06-30T13:11:02.128Z,25.15
2023-06-30T13:16:09.833Z,25.12
2023-06-30T13:21:18.265Z,25.09
2023-06-30T13:26:26.057Z,25.07
2023-06-30T13:31:34.294Z,25.07
2023-06-30T13:36:42.862Z,25.08
2023-06-30T13:41:51.905Z,25.09
2023-06-30T13:46:59.468Z,25.10
2023-06-30T13:52:07.861Z,25.09
2023-06-30T13:57:15.729Z,25.07
2023-06-30T14:02:23.386Z,25.07
2023-06-30T14:07:30.911Z,25.09
2023-06-30T14:12:38.429Z,25.11
2023-06-30T14:17:45.899Z,25.12
2023-06-30T14:22:53.914Z,25.11
2023-06-30T14:28:02.436Z,25.12
2023-06-30T14:33:10.182Z,25.11
2023-06-30T14:38:19.484Z,25.09
2023-06-30T14:43:30.113Z,25.05
2023-06-30T14:48:37.647Z,25.02
2023-06-30T14:53:45.062Z,24.99
2023-06-30T14:58:52.753Z,24.97
2023-06-30T15:04:00.384Z,24.94
2023-06-30T15:09:07.981Z,24.92
2023-06-30T15:14:15.950Z,24.89
2023-06-30T15:19:23.581Z,24.87
2023-06-30T15:24:31.133Z,24.84
2023-06-30T15:29:38.823Z,24.81
2023-06-30T15:34:46.225Z,24.80
2023-06-30T15:39:53.592Z,24.78
2023-06-30T15:45:02.101Z,24.76
2023-06-30T15:50:11.437Z,24.75
2023-06-30T15:55:19.834Z,24.74
2023-06-30T16:00:27.550Z,24.74
2023-06-30T16:05:35.360Z,24.73
2023-06-30T16:10:42.928Z,24.73
2023-06-30T16:15:50.546Z,24.71
2023-06-30T16:20:58.189Z,24.69
2023-06-30T16:26:05.832Z,24.68
2023-06-30T16:31:13.473Z,24.63
2023-06-30T16:36:20.958Z,24.62
2023-06-30T16:41:28.605Z,24.57
2023-06-30T16:46:36.485Z,24.52
2023-06-30T16:51:44.223Z,24.46
2023-06-30T16:56:51.709Z,24.41
2023-06-30T17:01:59.540Z,24.35
2023-06-30T17:07:07.612Z,24.30
2023-06-30T17:12:15.493Z,24.26
2023-06-30T17:17:25.584Z,24.22
2023-06-30T17:22:33.674Z,24.21
2023-06-30T17:27:41.165Z,24.20
2023-06-30T17:32:48.695Z,24.15
2023-06-30T17:37:56.496Z,24.09
2023-06-30T17:43:03.911Z,24.02
2023-06-30T17:48:12.056Z,23.94
2023-06-30T17:53:19.629Z,23.88
2023-06-30T17:58:27.228Z,23.79
2023-06-30T18:03:34.765Z,23.73
2023-06-30T18:08:42.758Z,23.65
2023-06-30T18:13:50.318Z,23.59
2023-06-30T18:18:57.582Z,23.52
2023-06-30T18:24:06.557Z,23.45
2023-06-30T18:29:14.102Z,23.39
2023-06-30T18:34:22.105Z,23.33
2023-06-30T18:39:29.769Z,23.27
2023-06-30T18:44:38.447Z,23.20
2023-06-30T18:49:46.295Z,23.13
2023-06-30T18:54:53.809Z,23.06
2023-06-30T19:00:01.972Z,22.99
2023-06-30T19:05:11.972Z,22.86
2023-06-30T19:10:20.121Z,22.70
2023-06-30T19:15:27.771Z,22.54
2023-06-30T19:20:35.295Z,22.40
2023-06-30T19:25:42.907Z,22.28
2023-06-30T19:30:52.126Z,22.13
2023-06-30T19:36:00.008Z,21.98
2023-06-30T19:41:07.466Z,21.84
2023-06-30T19:46:15.452Z,21.72
2023-06-30T19:51:23.190Z,21.61
2023-06-30T19:56:30.511Z,21.52
2023-06-30T20:01:38.080Z,21.43
2023-06-30T20:06:45.645Z,21.35
2023-06-30T20:11:53.184Z,21.27
2023-06-30T20:17:02.292Z,21.19
2023-06-30T20:22:10.414Z,21.12
2023-06-30T20:27:18.196Z,21.05
2023-06-30T20:32:26.232Z,21.00
2023-06-30T20:37:34.037Z,20.93
2023-06-30T20:42:41.766Z,20.85
2023-06-30T20:47:49.934Z,20.80
2023-06-30T20:52:58.621Z,20.73
2023-06-30T20:58:06.283Z,20.59
2023-06-30T21:03:13.822Z,20.46
2023-06-30T21:08:21.692Z,20.33
2023-06-30T21:13:29.807Z,20.22
2023-06-30T21:18:37.632Z,20.12
2023-06-30T21:23:45.218Z,20.02
2023-06-30T21:28:53.929Z,19.91
2023-06-30T21:34:01.490Z,19.82
2023-06-30T21:39:09.576Z,19.73
2023-06-30T21:44:17.480Z,19.63
2023-06-30T21:49:25.406Z,19.56
2023-06-30T21:54:47.242Z,19.48
2023-06-30T21:59:56.639Z,19.41
2023-06-30T22:05:04.446Z,19.34
2023-06-30T22:10:14.216Z,19.28
2023-06-30T22:15:23.649Z,19.21
2023-06-30T22:20:31.280Z,19.15
2023-06-30T22:25:39.045Z,19.07
2023-06-30T22:30:46.816Z,19.01
2023-06-30T22:35:55.154Z,18.94
2023-06-30T22:41:03.267Z,18.89
2023-06-30T22:46:11.077Z,18.84
2023-06-30T22:51:19.829Z,18.81
2023-06-30T22:56:27.757Z,18.75
2023-06-30T23:01:35.823Z,18.73
2023-06-30T23:06:43.318Z,18.70
2023-06-30T23:11:51.367Z,18.67
2023-06-30T23:16:59.098Z,18.65
2023-06-30T23:22:11.707Z,18.62
2023-06-30T23:27:20.296Z,18.60
2023-06-30T23:32:27.872Z,18.59
2023-06-30T23:37:35.402Z,18.57
2023-06-30T23:42:43.165Z,18.54
2023-06-30T23:47:51.478Z,18.53
2023-06-30T23:53:00.211Z,18.52
2023-06-30T23:58:08.074Z,18.51
